Time;durP1;ratioP1;P1;durP2;ratioP2;P2;SDS_P1;SDS_P2;PMS_P1;PMS_P2;Temp;Humidity;BMP_temperature;BMP_pressure;BME280_temperature;BME280_humidity;BME280_pressure;Samples;Min_cycle;Max_cycle;Signal;HPM_P1;HPM_P2
2023/02/25 00:00:09;;;;;;;14.82;2.20;;;;;;;8.74;58.50;101012.72;4993070;28;20045;-42
2023/02/25 00:02:34;;;;;;;14.10;2.07;;;;;;;8.61;58.20;101030.59;5001614;28;20026;-40
2023/02/25 00:05:05;;;;;;;15.85;2.45;;;;;;;8.56;57.04;101020.09;4984666;22;1082810;-45
2023/02/25 00:07:30;;;;;;;16.02;1.90;;;;;;;8.26;58.65;101017.59;4990131;28;20459;-44
2023/02/25 00:09:56;;;;;;;15.50;2.00;;;;;;;8.95;57.17;101021.03;5003919;28;20045;-47
2023/02/25 00:12:21;;;;;;;20.10;2.00;;;;;;;8.93;57.35;101017.50;5007917;28;20049;-46
2023/02/25 00:14:47;;;;;;;14.63;2.08;;;;;;;8.45;59.04;101027.66;5008022;28;20044;-43
2023/02/25 00:17:12;;;;;;;14.00;2.25;;;;;;;8.88;58.43;101026.06;5004048;28;20101;-45
2023/02/25 00:19:38;;;;;;;19.23;2.40;;;;;;;8.46;60.45;101020.72;5006924;28;20099;-44
2023/02/25 00:22:03;;;;;;;11.48;1.95;;;;;;;8.29;61.10;101043.69;5002214;28;20523;-43
2023/02/25 00:24:29;;;;;;;14.95;2.22;;;;;;;8.44;60.00;101038.00;5007527;28;20058;-43
2023/02/25 00:26:54;;;;;;;6.97;1.10;;;;;;;8.12;60.19;101032.84;5003665;28;20038;-44
2023/02/25 00:29:21;;;;;;;6.70;0.93;;;;;;;8.49;58.23;101029.47;5007359;28;20052;-43
2023/02/25 00:31:46;;;;;;;4.18;0.70;;;;;;;8.38;58.00;101033.53;5004170;28;20030;-45
2023/02/25 00:34:12;;;;;;;3.17;0.70;;;;;;;8.24;57.88;101021.00;4982414;28;20042;-44
2023/02/25 00:36:38;;;;;;;6.82;0.85;;;;;;;8.01;57.66;101038.59;5004484;28;20523;-46
2023/02/25 00:39:04;;;;;;;6.75;1.00;;;;;;;7.93;56.96;101030.59;5000753;28;20453;-43
2023/02/25 00:41:29;;;;;;;5.47;0.90;;;;;;;8.05;56.55;101035.25;5003769;28;20409;-45
2023/02/25 00:43:58;;;;;;;6.95;1.23;;;;;;;8.26;56.40;101038.38;4999401;28;20411;-44
2023/02/25 00:46:24;;;;;;;10.60;1.50;;;;;;;7.46;61.49;101043.97;5003391;28;20053;-43
2023/02/25 00:48:50;;;;;;;8.68;1.65;;;;;;;7.54;63.23;101035.59;5004493;28;20029;-46
2023/02/25 00:51:18;;;;;;;11.00;1.63;;;;;;;7.88;62.85;101050.38;4982636;28;20045;-49
2023/02/25 00:53:44;;;;;;;16.65;1.60;;;;;;;7.97;62.33;101042.84;5003771;28;20112;-46
2023/02/25 00:56:15;;;;;;;19.33;1.77;;;;;;;8.04;62.44;101041.28;5000428;28;22225;-49
2023/02/25 00:58:42;;;;;;;10.68;1.45;;;;;;;7.87;62.04;101046.00;5006633;28;20049;-42
2023/02/25 01:01:22;;;;;;;8.23;1.42;;;;;;;7.65;61.93;101035.88;5005304;28;20046;-42
2023/02/25 01:03:50;;;;;;;10.30;1.77;;;;;;;8.06;61.52;101037.00;5000667;28;20046;-44
2023/02/25 01:06:16;;;;;;;11.70;1.58;;;;;;;7.79;62.16;101044.06;5004066;28;20034;-43
2023/02/25 01:08:41;;;;;;;11.02;1.60;;;;;;;8.15;61.18;101048.50;5004155;28;20042;-48
2023/02/25 01:11:28;;;;;;;9.27;1.58;;;;;;;7.73;61.19;101052.56;4999544;28;20041;-43
2023/02/25 01:13:58;;;;;;;14.30;1.40;;;;;;;8.17;60.00;101050.28;4982529;28;20033;-44
2023/02/25 01:16:26;;;;;;;8.52;1.40;;;;;;;8.18;59.65;101057.19;5003688;28;20492;-46
2023/02/25 01:18:53;;;;;;;10.20;1.50;;;;;;;7.73;60.81;101058.63;4999653;28;20042;-44
2023/02/25 01:21:26;;;;;;;10.13;1.50;;;;;;;8.35;59.25;101053.38;5004182;28;20264;-48
2023/02/25 01:23:57;;;;;;;11.70;2.08;;;;;;;8.18;59.72;101062.38;4999347;28;20214;-42
2023/02/25 01:26:23;;;;;;;10.18;1.65;;;;;;;8.18;59.80;101059.78;5003344;28;20052;-44
2023/02/25 01:28:49;;;;;;;13.55;1.75;;;;;;;7.85;59.87;101065.00;5004287;28;20042;-44
2023/02/25 01:31:23;;;;;;;10.77;1.75;;;;;;;8.09;59.28;101060.44;5000144;28;20041;-45
2023/02/25 01:33:49;;;;;;;13.32;2.17;;;;;;;8.34;58.80;101052.50;5003528;28;20029;-44
2023/02/25 01:36:14;;;;;;;10.82;1.60;;;;;;;8.53;58.60;101044.31;4998805;28;20570;-43
2023/02/25 01:38:39;;;;;;;11.80;1.60;;;;;;;8.57;58.53;101041.78;5003826;28;20038;-44
2023/02/25 01:41:05;;;;;;;14.05;2.03;;;;;;;8.53;59.22;101044.31;4999632;28;20034;-44
2023/02/25 01:43:30;;;;;;;10.40;1.73;;;;;;;8.30;59.45;101048.03;5003074;28;20063;-45
2023/02/25 01:45:55;;;;;;;14.55;1.83;;;;;;;8.39;59.07;101043.09;5001497;28;20073;-44
2023/02/25 01:48:26;;;;;;;15.55;2.03;;;;;;;8.48;58.68;101040.69;4984475;28;20026;-45
2023/02/25 01:50:56;;;;;;;14.30;2.05;;;;;;;8.35;59.02;101041.25;5003272;28;20037;-43
2023/02/25 01:53:31;;;;;;;17.08;2.20;;;;;;;8.87;57.90;101034.69;5000259;28;20033;-42
2023/02/25 01:55:58;;;;;;;15.45;2.08;;;;;;;8.75;57.64;101031.81;4998653;28;20038;-48
2023/02/25 01:58:25;;;;;;;16.42;2.35;;;;;;;8.75;57.54;101052.59;5003662;28;20026;-43
2023/02/25 02:00:54;;;;;;;12.40;1.60;;;;;;;8.45;59.91;101060.53;5000246;28;20583;-56
2023/02/25 02:03:23;;;;;;;9.70;1.70;;;;;;;7.97;62.68;101078.31;5003686;28;20720;-46
2023/02/25 02:06:22;;;;;;;11.57;1.50;;;;;;;7.68;63.83;101065.38;5002407;28;20037;-43
2023/02/25 02:08:48;;;;;;;10.23;1.48;;;;;;;7.13;65.27;101064.66;4998039;28;20491;-45
2023/02/25 02:11:14;;;;;;;8.10;1.40;;;;;;;7.26;64.40;101064.16;5001120;28;20038;-51
2023/02/25 02:13:47;;;;;;;8.25;1.10;;;;;;;7.34;63.16;101054.88;5003539;28;20041;-42
2023/02/25 02:16:12;;;;;;;5.93;1.10;;;;;;;7.25;61.84;101049.44;4999418;28;20259;-44
2023/02/25 02:18:45;;;;;;;7.43;1.25;;;;;;;7.53;60.47;101052.00;5003191;28;20566;-46
2023/02/25 02:21:28;;;;;;;8.70;1.40;;;;;;;7.72;60.01;101043.00;4999151;28;20057;-45
2023/02/25 02:24:35;;;;;;;11.98;1.85;;;;;;;7.88;59.45;101052.97;4999284;28;20070;-44
2023/02/25 02:27:08;;;;;;;10.55;1.73;;;;;;;7.81;59.21;101050.19;4991941;28;20491;-48
2023/02/25 02:29:54;;;;;;;8.23;1.38;;;;;;;8.03;59.33;101049.91;5000405;28;20057;-43
2023/02/25 02:32:44;;;;;;;11.38;1.80;;;;;;;8.09;59.28;101060.44;4998912;28;20060;-44
2023/02/25 02:35:41;;;;;;;16.45;1.88;;;;;;;7.80;60.67;101046.72;5000006;28;20030;-43
2023/02/25 02:38:12;;;;;;;12.23;1.63;;;;;;;8.15;60.38;101047.63;4998839;28;20492;-43
2023/02/25 02:40:50;;;;;;;11.02;1.58;;;;;;;8.07;60.54;101057.81;5002304;28;20492;-45
2023/02/25 02:43:38;;;;;;;14.25;2.35;;;;;;;7.97;61.11;101054.94;4999015;28;20607;-43
2023/02/25 02:46:23;;;;;;;15.07;2.00;;;;;;;7.95;62.14;101048.81;4998469;28;20034;-43
2023/02/25 02:49:07;;;;;;;15.95;2.10;;;;;;;8.31;61.65;101060.19;4999260;28;20500;-46
2023/02/25 02:51:38;;;;;;;12.55;2.10;;;;;;;7.92;62.34;101065.22;5002901;28;20092;-46
2023/02/25 02:54:06;;;;;;;14.10;1.95;;;;;;;8.33;60.44;101055.91;4999220;28;20448;-45
2023/02/25 02:56:34;;;;;;;11.75;2.00;;;;;;;8.28;58.75;101064.41;5001785;28;20085;-47
2023/02/25 02:59:08;;;;;;;8.20;1.63;;;;;;;8.14;58.91;101077.91;4999153;28;20034;-43
2023/02/25 03:01:40;;;;;;;14.98;1.73;;;;;;;8.44;58.16;101064.84;5002851;28;20042;-45
2023/02/25 03:04:10;;;;;;;13.75;1.58;;;;;;;8.22;57.76;101072.03;4998546;28;20455;-42
2023/02/25 03:06:42;;;;;;;10.68;1.73;;;;;;;8.10;57.80;101072.59;5002173;28;20037;-44
2023/02/25 03:09:13;;;;;;;12.45;2.03;;;;;;;8.28;57.87;101067.88;4998241;28;22628;-45
2023/02/25 03:11:39;;;;;;;11.90;1.80;;;;;;;8.19;58.60;101074.53;5002587;28;20088;-45
2023/02/25 03:14:07;;;;;;;15.45;2.00;;;;;;;8.29;58.20;101064.44;4980696;28;20034;-44
2023/02/25 03:16:39;;;;;;;8.38;1.50;;;;;;;8.15;57.66;101065.81;5001145;28;20072;-46
2023/02/25 03:19:11;;;;;;;11.07;1.65;;;;;;;7.56;58.56;101071.97;4997700;28;20041;-47
2023/02/25 03:21:49;;;;;;;16.05;1.90;;;;;;;7.80;58.99;101084.75;5002099;28;20485;-46
2023/02/25 03:24:21;;;;;;;11.65;1.77;;;;;;;7.33;61.91;101072.16;4999607;28;20040;-42
2023/02/25 03:26:48;;;;;;;12.98;1.80;;;;;;;7.38;61.95;101063.66;5003539;28;20121;-43
2023/02/25 03:29:16;;;;;;;9.80;1.45;;;;;;;7.87;59.69;101060.72;5000516;28;20030;-45
2023/02/25 03:31:55;;;;;;;11.27;1.70;;;;;;;7.76;57.53;101060.41;5002047;28;20518;-43
2023/02/25 03:34:25;;;;;;;8.27;1.40;;;;;;;7.84;56.19;101052.84;4997924;28;20033;-44
2023/02/25 03:37:04;;;;;;;10.75;1.80;;;;;;;8.23;56.05;101053.03;4997243;28;20113;-44
2023/02/25 03:39:35;;;;;;;9.68;1.48;;;;;;;8.61;54.43;101057.47;5004186;28;20113;-44
2023/02/25 03:42:04;;;;;;;10.80;1.70;;;;;;;8.36;54.83;101058.59;5002881;28;20042;-44
2023/02/25 03:44:45;;;;;;;15.45;2.10;;;;;;;8.36;56.94;101060.28;5007835;28;20125;-43
2023/02/25 03:47:12;;;;;;;14.02;2.15;;;;;;;8.26;56.75;101061.75;5005181;28;20104;-45
2023/02/25 03:49:49;;;;;;;12.13;1.98;;;;;;;8.31;57.29;101064.50;5007162;28;20602;-44
2023/02/25 03:52:19;;;;;;;18.75;2.63;;;;;;;8.29;57.33;101063.56;5001180;28;20045;-48
2023/02/25 03:54:50;;;;;;;12.45;2.03;;;;;;;8.36;57.72;101065.50;5005127;28;20042;-43
2023/02/25 03:57:15;;;;;;;13.80;2.10;;;;;;;8.53;57.69;101069.41;5000864;28;20463;-44
2023/02/25 03:59:41;;;;;;;18.40;2.42;;;;;;;8.38;58.58;101067.31;5004736;28;20126;-44
2023/02/25 04:02:07;;;;;;;17.88;2.35;;;;;;;8.22;58.97;101065.13;5000620;28;20041;-45
2023/02/25 04:04:32;;;;;;;11.18;2.00;;;;;;;8.42;58.05;101061.34;5004525;28;20403;-43
2023/02/25 04:06:57;;;;;;;12.70;2.25;;;;;;;8.21;58.05;101073.75;5002407;28;20452;-45
2023/02/25 04:09:23;;;;;;;12.52;1.70;;;;;;;8.17;57.70;101068.44;5004805;28;20026;-44
2023/02/25 04:11:48;;;;;;;16.33;2.38;;;;;;;8.17;57.33;101073.66;5005248;28;20049;-44
2023/02/25 04:14:14;;;;;;;13.35;1.67;;;;;;;8.22;57.36;101078.13;5000777;28;20122;-45
2023/02/25 04:16:39;;;;;;;11.07;1.67;;;;;;;7.80;59.42;101098.63;5004615;28;20042;-46
2023/02/25 04:19:05;;;;;;;7.78;1.17;;;;;;;7.71;59.21;101082.78;5001344;28;20650;-43
2023/02/25 04:21:35;;;;;;;5.72;1.30;;;;;;;7.72;57.90;101080.22;5004812;28;20125;-43
2023/02/25 04:24:02;;;;;;;7.22;0.95;;;;;;;7.96;54.36;101079.13;4984301;28;20045;-44
2023/02/25 04:26:27;;;;;;;9.63;1.20;;;;;;;8.06;55.28;101083.72;5008398;28;20033;-48
2023/02/25 04:28:53;;;;;;;11.40;1.40;;;;;;;8.21;54.99;101093.66;5005378;28;20091;-46
2023/02/25 04:31:18;;;;;;;10.15;1.30;;;;;;;8.06;56.45;101104.50;5008494;28;20034;-44
2023/02/25 04:33:48;;;;;;;12.25;1.50;;;;;;;7.88;58.16;101104.00;5009265;28;20088;-41
2023/02/25 04:36:25;;;;;;;8.77;1.80;;;;;;;7.81;59.96;101102.09;5004214;28;20030;-45
2023/02/25 04:38:52;;;;;;;14.10;1.88;;;;;;;7.88;59.95;101099.69;5001513;28;20069;-46
2023/02/25 04:41:17;;;;;;;11.80;1.63;;;;;;;8.14;59.94;101108.19;5005248;28;20037;-44
2023/02/25 04:43:44;;;;;;;12.02;1.40;;;;;;;8.10;59.69;101106.38;5004193;28;20041;-46
2023/02/25 04:46:10;;;;;;;17.52;1.50;;;;;;;7.97;59.88;101104.25;5001117;28;20056;-44
2023/02/25 04:48:35;;;;;;;10.07;1.70;;;;;;;8.12;58.80;101107.25;5004129;28;20034;-44
2023/02/25 04:51:02;;;;;;;10.30;1.30;;;;;;;8.21;58.20;101111.84;5000423;28;20046;-42
2023/02/25 04:53:27;;;;;;;13.05;1.88;;;;;;;8.33;57.51;101109.59;5004354;28;20033;-48
2023/02/25 04:55:52;;;;;;;10.45;1.40;;;;;;;8.37;57.25;101114.00;4999922;28;20057;-45
2023/02/25 04:58:18;;;;;;;9.40;1.80;;;;;;;8.21;58.20;101111.84;5004560;28;20038;-45
2023/02/25 05:00:47;;;;;;;9.23;1.65;;;;;;;8.04;58.40;101112.28;5003570;28;20064;-42
2023/02/25 05:03:13;;;;;;;11.63;1.67;;;;;;;8.51;56.72;101118.75;5000059;28;20042;-44
2023/02/25 05:05:39;;;;;;;14.30;1.67;;;;;;;8.27;57.04;101110.28;5003386;28;20030;-46
2023/02/25 05:08:04;;;;;;;12.63;1.60;;;;;;;8.48;56.49;101110.84;4999173;28;20385;-43
2023/02/25 05:10:30;;;;;;;13.95;1.88;;;;;;;8.40;55.91;101108.91;5002622;28;20030;-45
2023/02/25 05:12:55;;;;;;;8.25;1.63;;;;;;;8.57;55.50;101107.63;4998082;28;20049;-46
2023/02/25 05:15:21;;;;;;;16.15;1.80;;;;;;;8.65;55.21;101106.09;5003521;28;20041;-46
2023/02/25 05:17:46;;;;;;;17.13;1.80;;;;;;;8.46;55.81;101114.28;5003544;28;20029;-48
2023/02/25 05:20:12;;;;;;;13.63;1.70;;;;;;;8.35;56.25;101108.81;4999482;28;20079;-42
2023/02/25 05:22:39;;;;;;;14.65;2.08;;;;;;;8.35;55.81;101116.59;5002147;28;20075;-43
2023/02/25 05:25:06;;;;;;;15.38;1.90;;;;;;;8.21;56.54;101111.84;4999809;28;20496;-44
2023/02/25 05:27:33;;;;;;;15.95;2.20;;;;;;;8.38;56.00;101110.59;4985626;28;20050;-43
2023/02/25 05:29:58;;;;;;;12.20;1.77;;;;;;;8.20;56.85;101102.28;4999436;28;20116;-46
2023/02/25 05:32:23;;;;;;;10.25;1.75;;;;;;;8.09;56.86;101094.22;5003112;28;20117;-44
2023/02/25 05:34:49;;;;;;;16.60;2.15;;;;;;;7.92;57.69;101092.88;4999511;28;20044;-44
2023/02/25 05:37:14;;;;;;;13.15;1.63;;;;;;;8.49;56.14;101098.75;5003381;28;20496;-43
2023/02/25 05:39:39;;;;;;;21.05;2.33;;;;;;;8.40;57.06;101104.59;5002799;28;20080;-47
2023/02/25 05:42:05;;;;;;;12.57;1.88;;;;;;;8.16;57.78;101116.91;4998686;28;20038;-43
2023/02/25 05:44:30;;;;;;;16.48;3.92;;;;;;;8.22;57.47;101119.66;5002506;28;20116;-44
2023/02/25 05:46:56;;;;;;;11.20;1.98;;;;;;;7.99;58.93;101133.75;4999070;28;20120;-43
2023/02/25 05:49:21;;;;;;;12.93;2.25;;;;;;;8.18;58.01;101123.00;5002856;28;20034;-44
2023/02/25 05:51:48;;;;;;;15.98;2.25;;;;;;;8.28;57.69;101105.97;5002752;28;20034;-44
2023/02/25 05:54:13;;;;;;;15.70;2.85;;;;;;;8.35;57.41;101119.19;4999120;28;20031;-45
2023/02/25 05:56:39;;;;;;;13.02;2.00;;;;;;;8.57;56.92;101128.41;5002641;28;20056;-43
2023/02/25 05:59:04;;;;;;;13.32;2.05;;;;;;;7.87;59.25;101134.25;4999940;28;20037;-44
2023/02/25 06:01:30;;;;;;;12.70;2.42;;;;;;;8.06;58.22;101139.13;4985435;28;20034;-44
2023/02/25 06:03:57;;;;;;;12.88;2.35;;;;;;;7.89;58.91;101137.78;4999235;28;20041;-45
2023/02/25 06:06:24;;;;;;;13.07;1.98;;;;;;;7.53;60.33;101139.31;5002540;28;20088;-42
2023/02/25 06:08:50;;;;;;;9.00;1.58;;;;;;;7.52;60.73;101124.59;4999164;28;20500;-52
2023/02/25 06:11:19;;;;;;;7.13;1.30;;;;;;;7.93;59.16;101126.66;5002157;28;20116;-43
2023/02/25 06:13:47;;;;;;;11.43;1.33;;;;;;;7.66;60.34;101129.34;5002330;28;20044;-44
2023/02/25 06:16:13;;;;;;;9.82;1.40;;;;;;;7.50;61.12;101119.34;4998232;28;20535;-44
2023/02/25 06:18:38;;;;;;;12.55;1.60;;;;;;;7.55;60.86;101120.38;5002140;28;20045;-43
2023/02/25 06:21:06;;;;;;;15.18;1.60;;;;;;;7.29;61.69;101127.38;4998205;28;20034;-47
2023/02/25 06:23:33;;;;;;;11.93;1.70;;;;;;;7.51;62.12;101133.19;5002332;28;20045;-43
2023/02/25 06:25:58;;;;;;;15.27;2.08;;;;;;;7.38;61.36;101144.91;4999743;28;20417;-44
2023/02/25 06:28:24;;;;;;;12.48;1.70;;;;;;;7.57;60.07;101136.84;5003321;28;20036;-48
2023/02/25 06:30:49;;;;;;;16.15;2.10;;;;;;;7.49;58.93;101140.97;4999047;28;20048;-43
2023/02/25 06:33:14;;;;;;;14.18;1.80;;;;;;;7.72;57.72;101142.50;5002418;28;20037;-44
2023/02/25 06:35:40;;;;;;;14.57;2.03;;;;;;;7.78;56.70;101143.50;5001585;28;20030;-45
2023/02/25 06:38:05;;;;;;;10.07;1.60;;;;;;;8.06;56.34;101153.81;4998273;28;20038;-45
2023/02/25 06:40:33;;;;;;;12.02;1.60;;;;;;;7.79;56.24;101158.25;5002381;28;20052;-45
2023/02/25 06:42:58;;;;;;;12.52;1.40;;;;;;;7.46;58.01;101161.59;4998180;28;20042;-45
2023/02/25 06:45:24;;;;;;;8.57;1.30;;;;;;;7.50;58.90;101158.25;5001599;28;20038;-44
2023/02/25 06:47:49;;;;;;;7.88;1.35;;;;;;;7.52;60.52;101168.69;4998389;28;20053;-44
2023/02/25 06:50:16;;;;;;;8.95;1.40;;;;;;;7.51;61.55;101169.50;5001169;28;20037;-47
2023/02/25 06:52:41;;;;;;;8.65;1.55;;;;;;;7.62;61.86;101181.13;5002232;28;20034;-45
2023/02/25 06:55:07;;;;;;;8.65;1.35;;;;;;;7.74;62.05;101166.75;4998498;28;20045;-44
2023/02/25 06:57:33;;;;;;;10.70;1.40;;;;;;;7.56;63.02;101186.97;5002279;28;20049;-44
2023/02/25 06:59:58;;;;;;;8.82;1.30;;;;;;;7.81;62.06;101190.34;4998617;28;20424;-43
2023/02/25 07:02:24;;;;;;;10.85;1.50;;;;;;;7.57;64.42;101199.13;4984466;28;20077;-44
2023/02/25 07:04:52;;;;;;;8.52;1.30;;;;;;;7.38;65.59;101206.31;4998252;28;20063;-45
2023/02/25 07:07:18;;;;;;;7.28;1.30;;;;;;;7.03;64.68;101203.44;5002180;28;20517;-46
2023/02/25 07:09:43;;;;;;;10.48;1.45;;;;;;;6.95;66.27;101204.94;5002752;28;20054;-44
2023/02/25 07:12:08;;;;;;;8.95;1.50;;;;;;;6.57;67.19;101200.16;4998310;28;20372;-45
2023/02/25 07:14:34;;;;;;;7.70;1.40;;;;;;;6.96;66.06;101198.00;5000794;28;20068;-44
2023/02/25 07:16:59;;;;;;;7.25;1.60;;;;;;;7.00;65.34;101190.41;4999761;28;20034;-44
2023/02/25 07:19:24;;;;;;;9.82;1.33;;;;;;;6.91;65.59;101195.28;5004694;28;20343;-46
2023/02/25 07:21:50;;;;;;;8.60;1.48;;;;;;;6.96;65.51;101196.28;5002301;28;20034;-44
2023/02/25 07:24:16;;;;;;;14.00;1.58;;;;;;;7.18;64.85;101192.72;5005069;28;20586;-48
2023/02/25 07:26:41;;;;;;;10.30;1.48;;;;;;;7.50;63.98;101189.38;5005526;28;20074;-44
2023/02/25 07:29:07;;;;;;;16.52;1.80;;;;;;;7.55;63.50;101193.03;5002618;28;20061;-45
2023/02/25 07:31:32;;;;;;;10.45;1.60;;;;;;;7.70;63.52;101205.56;4971500;28;20058;-45
2023/02/25 07:34:02;;;;;;;11.95;1.83;;;;;;;7.71;63.74;101197.84;5002739;28;20081;-46
2023/02/25 07:36:31;;;;;;;10.45;1.40;;;;;;;7.84;63.65;101195.59;5006658;28;20113;-45
2023/02/25 07:38:57;;;;;;;16.50;2.38;;;;;;;7.85;63.56;101195.66;5004627;28;20034;-45
2023/02/25 07:41:23;;;;;;;13.20;1.80;;;;;;;7.96;63.38;101203.75;5009513;28;20167;-42
2023/02/25 07:43:48;;;;;;;11.15;1.98;;;;;;;7.61;63.65;101208.78;5009426;28;20064;-42
2023/02/25 07:46:13;;;;;;;16.33;1.83;;;;;;;7.87;62.81;101193.97;5004993;28;20055;-45
2023/02/25 07:48:39;;;;;;;11.77;2.22;;;;;;;8.04;62.62;101208.34;5010241;28;20045;-45
2023/02/25 07:51:17;;;;;;;13.43;2.15;;;;;;;8.21;62.31;101207.94;5005987;28;20089;-43
2023/02/25 07:53:43;;;;;;;18.25;2.05;;;;;;;8.26;61.41;101208.94;4989771;28;20392;-45
2023/02/25 07:56:08;;;;;;;16.70;1.80;;;;;;;8.54;60.54;101206.28;5006089;28;20038;-48
2023/02/25 07:58:34;;;;;;;12.68;1.77;;;;;;;8.73;59.42;101205.03;5007727;28;20567;-44
2023/02/25 08:01:02;;;;;;;14.43;1.85;;;;;;;8.71;58.96;101215.41;5001055;28;20510;-46
2023/02/25 08:03:28;;;;;;;19.70;2.55;;;;;;;8.97;58.29;101226.47;5004861;28;20092;-44
2023/02/25 08:05:53;;;;;;;15.40;2.03;;;;;;;8.76;58.42;101216.41;5000820;28;20042;-45
2023/02/25 08:08:20;;;;;;;15.52;2.03;;;;;;;8.46;58.50;101224.28;5004997;28;20063;-44
2023/02/25 08:10:46;;;;;;;20.20;2.67;;;;;;;8.84;58.86;101224.41;5004535;28;20042;-45
2023/02/25 08:13:11;;;;;;;16.63;2.40;;;;;;;8.65;58.25;101220.47;5001490;28;20074;-44
2023/02/25 08:15:41;;;;;;;12.13;2.47;;;;;;;8.88;58.50;101227.13;5004766;28;20026;-46
2023/02/25 08:18:07;;;;;;;17.85;2.60;;;;;;;8.79;56.34;101233.78;5000933;28;20038;-43
2023/02/25 08:20:32;;;;;;;14.77;2.00;;;;;;;8.68;55.72;101225.72;5004564;28;20034;-42
2023/02/25 08:22:57;;;;;;;11.32;1.88;;;;;;;9.01;54.67;101238.72;5000123;28;20034;-45
2023/02/25 08:25:23;;;;;;;13.32;1.92;;;;;;;8.84;54.73;101235.66;5004671;28;20135;-44
2023/02/25 08:27:48;;;;;;;15.70;2.13;;;;;;;8.73;55.41;101229.31;5004822;28;20092;-45
2023/02/25 08:30:14;;;;;;;17.88;2.78;;;;;;;8.74;55.91;101233.69;5000734;28;20117;-44
2023/02/25 08:32:40;;;;;;;14.65;2.10;;;;;;;8.97;55.65;101239.47;5005029;28;20054;-43
2023/02/25 08:35:06;;;;;;;14.25;2.33;;;;;;;9.07;54.92;101236.28;5000673;28;20041;-43
2023/02/25 08:37:32;;;;;;;24.85;2.50;;;;;;;9.32;55.35;101245.56;5005724;28;20084;-46
2023/02/25 08:39:57;;;;;;;15.45;2.38;;;;;;;9.49;55.43;101239.03;5001507;28;20097;-44
2023/02/25 08:42:23;;;;;;;17.13;2.60;;;;;;;9.44;55.67;101239.78;5004331;28;20037;-45
2023/02/25 08:44:49;;;;;;;18.15;2.05;;;;;;;9.39;55.48;101247.47;5002457;28;20045;-46
2023/02/25 08:47:15;;;;;;;15.80;2.17;;;;;;;9.46;55.50;101238.06;4986246;28;20488;-43
2023/02/25 08:49:41;;;;;;;12.32;2.42;;;;;;;9.00;55.83;101249.97;4987511;28;20066;-49
2023/02/25 08:52:10;;;;;;;19.92;2.03;;;;;;;9.39;53.51;101254.41;5000492;28;20367;-42
2023/02/25 08:54:37;;;;;;;14.50;2.13;;;;;;;9.37;53.08;101243.97;5007172;28;20030;-41
2023/02/25 08:57:02;;;;;;;17.85;2.78;;;;;;;9.62;53.54;101248.00;5003343;28;20037;-42
2023/02/25 08:59:34;;;;;;;13.30;2.33;;;;;;;9.86;53.65;101245.09;5005169;28;20101;-44
2023/02/25 09:02:05;;;;;;;13.88;2.00;;;;;;;9.59;54.78;101253.13;5000913;28;20033;-45
2023/02/25 09:04:31;;;;;;;18.25;2.33;;;;;;;9.27;53.88;101249.78;5004007;28;20034;-45
2023/02/25 09:06:57;;;;;;;20.13;2.90;;;;;;;9.32;54.55;101255.97;5001240;28;20030;-43
2023/02/25 09:09:24;;;;;;;13.95;2.08;;;;;;;9.35;54.23;101249.13;5004234;28;20393;-43
2023/02/25 09:11:49;;;;;;;20.63;2.38;;;;;;;9.46;53.62;101262.38;5003326;28;20115;-43
2023/02/25 09:14:16;;;;;;;12.85;2.55;;;;;;;9.47;53.91;101266.75;5002402;28;20496;-44
2023/02/25 09:16:41;;;;;;;18.40;2.30;;;;;;;9.60;54.13;101261.00;5004749;28;20119;-45
2023/02/25 09:19:07;;;;;;;15.68;2.38;;;;;;;9.58;54.53;101272.19;5000313;28;20393;-43
2023/02/25 09:21:32;;;;;;;20.30;2.83;;;;;;;9.54;54.67;101284.28;5003131;28;20400;-49
2023/02/25 09:23:58;;;;;;;13.68;1.80;;;;;;;9.38;55.17;101282.16;4999231;28;20385;-45
2023/02/25 09:26:24;;;;;;;16.45;2.20;;;;;;;9.34;54.95;101295.91;5002568;28;20399;-43
2023/02/25 09:28:49;;;;;;;10.80;1.98;;;;;;;9.14;57.16;101321.44;5004111;28;20041;-43
2023/02/25 09:31:16;;;;;;;11.18;1.33;;;;;;;9.20;57.72;101328.53;4999229;28;20048;-47
2023/02/25 09:33:43;;;;;;;8.57;1.38;;;;;;;8.57;60.35;101328.50;5003710;28;20038;-43
2023/02/25 09:36:15;;;;;;;7.63;2.35;;;;;;;8.48;61.55;101329.13;4999418;28;20366;-44
2023/02/25 09:38:42;;;;;;;9.60;1.40;;;;;;;8.68;61.41;101321.88;5002740;28;20034;-43
2023/02/25 09:41:25;;;;;;;10.80;1.63;;;;;;;8.55;61.76;101336.25;4997827;28;20117;-43
2023/02/25 09:44:05;;;;;;;11.50;1.75;;;;;;;8.86;61.32;101332.81;4999006;28;20504;-43
2023/02/25 09:46:33;;;;;;;10.13;2.08;;;;;;;9.18;61.36;101333.66;5002341;28;20157;-45
2023/02/25 09:49:08;;;;;;;7.95;1.95;;;;;;;9.01;61.28;101336.66;4999049;28;20098;-45
2023/02/25 09:51:39;;;;;;;10.60;1.55;;;;;;;9.01;60.88;101334.94;5002723;28;20563;-44
2023/02/25 09:54:13;;;;;;;9.63;1.55;;;;;;;9.13;60.11;101331.78;4998912;28;20029;-43
2023/02/25 09:56:38;;;;;;;13.77;2.00;;;;;;;9.39;59.72;101332.47;5001464;28;20084;-44
2023/02/25 09:59:12;;;;;;;8.90;1.80;;;;;;;9.61;58.64;101330.44;4999076;28;20026;-45
2023/02/25 10:01:47;;;;;;;9.73;1.65;;;;;;;9.88;56.95;101334.56;5001861;28;20045;-44
2023/02/25 10:04:42;;;;;;;11.55;1.75;;;;;;;9.89;56.20;101336.28;4981986;28;20096;-44
2023/02/25 10:07:17;;;;;;;10.50;1.90;;;;;;;9.81;57.03;101330.03;4997821;28;20469;-46
2023/02/25 10:09:50;;;;;;;10.65;1.77;;;;;;;9.88;55.36;101337.16;5001920;28;20032;-45
2023/02/25 10:12:44;;;;;;;12.30;1.98;;;;;;;10.22;54.80;101341.44;4998540;28;20038;-44
2023/02/25 10:15:31;;;;;;;8.10;1.63;;;;;;;10.87;54.26;101341.06;4998339;28;20452;-44
2023/02/25 10:18:21;;;;;;;12.10;1.80;;;;;;;10.65;53.09;101336.28;4997769;28;20056;-46
2023/02/25 10:20:56;;;;;;;9.68;2.17;;;;;;;11.18;52.71;101341.66;5002179;28;20030;-51
2023/02/25 10:23:28;;;;;;;11.55;1.92;;;;;;;10.97;52.04;101339.53;4998715;28;20569;-44
2023/02/25 10:26:06;;;;;;;10.57;2.00;;;;;;;10.88;51.65;101344.56;4998302;28;20410;-48
2023/02/25 10:28:34;;;;;;;10.38;1.70;;;;;;;10.34;54.14;101352.13;5001577;28;20046;-47
2023/02/25 10:31:07;;;;;;;11.18;1.48;;;;;;;9.97;54.86;101359.06;5001563;28;20060;-46
2023/02/25 10:33:36;;;;;;;6.78;1.40;;;;;;;9.32;57.69;101368.75;4997769;28;20599;-43
2023/02/25 10:36:18;;;;;;;8.48;1.50;;;;;;;9.21;58.62;101367.56;4998086;28;20052;-43
2023/02/25 10:38:47;;;;;;;10.77;1.63;;;;;;;9.56;57.59;101375.41;5002433;28;20125;-46
2023/02/25 10:41:13;;;;;;;6.70;1.50;;;;;;;9.74;56.14;101368.06;4997685;28;20042;-45
2023/02/25 10:43:39;;;;;;;5.85;1.33;;;;;;;9.30;56.27;101370.41;5003764;28;20053;-44
2023/02/25 10:46:22;;;;;;;7.07;1.30;;;;;;;9.21;55.77;101377.97;5000469;28;20034;-46
2023/02/25 10:49:12;;;;;;;8.63;1.52;;;;;;;9.59;54.77;101378.97;5001399;28;20130;-44
2023/02/25 10:51:37;;;;;;;5.95;1.20;;;;;;;9.63;54.74;101380.81;5000299;28;20025;-43
2023/02/25 10:54:06;;;;;;;5.57;1.40;;;;;;;9.50;54.60;101377.88;5002157;28;20575;-47
2023/02/25 10:56:43;;;;;;;7.35;1.17;;;;;;;9.42;55.00;101384.59;5006140;28;20030;-47
2023/02/25 10:59:24;;;;;;;6.13;1.10;;;;;;;9.67;55.01;101382.66;5001422;28;20578;-44
2023/02/25 11:01:49;;;;;;;6.20;1.10;;;;;;;9.94;55.42;101389.38;5006483;28;20514;-47
2023/02/25 11:04:19;;;;;;;6.40;1.17;;;;;;;10.00;52.44;101384.31;5001860;28;20098;-45
2023/02/25 11:06:45;;;;;;;5.85;1.25;;;;;;;9.84;53.37;101385.66;5005798;28;20033;-47
2023/02/25 11:09:19;;;;;;;8.38;1.30;;;;;;;9.76;52.77;101389.78;5000629;28;20034;-45
2023/02/25 11:11:59;;;;;;;7.47;1.40;;;;;;;10.06;53.64;101389.69;5004012;28;20056;-44
2023/02/25 11:14:31;;;;;;;6.80;1.55;;;;;;;10.55;50.83;101387.34;4983093;28;20574;-44
2023/02/25 11:17:06;;;;;;;4.13;1.20;;;;;;;10.58;50.18;101403.06;4983237;28;20124;-42
2023/02/25 11:19:37;;;;;;;8.35;1.38;;;;;;;10.95;50.60;101406.44;5005169;28;20029;-45
2023/02/25 11:22:45;;;;;;;7.15;1.30;;;;;;;10.98;48.78;101399.53;5001440;28;20033;-45
2023/02/25 11:25:16;;;;;;;7.50;1.40;;;;;;;10.99;46.97;101406.53;5001760;28;20034;-45
2023/02/25 11:27:48;;;;;;;5.88;1.10;;;;;;;11.22;47.24;101414.78;5009848;28;20053;-46
2023/02/25 11:30:24;;;;;;;4.97;1.08;;;;;;;10.99;47.25;101414.34;5006229;28;20399;-45
2023/02/25 11:32:54;;;;;;;4.45;1.10;;;;;;;10.74;48.49;101419.03;5006358;28;20488;-43
2023/02/25 11:35:29;;;;;;;4.60;1.23;;;;;;;10.39;49.78;101429.56;5001335;28;20049;-43